sensor_id;sensor_type;location;lat;lon;timestamp;P1;durP1;ratioP1;P2;durP2;ratioP2
41466;SDS011;27205;53.690;19.948;2023-03-05T00:00:05;4.30;;;3.90;;
41466;SDS011;27205;53.690;19.948;2023-03-05T00:05:29;4.10;;;3.70;;
41466;SDS011;27205;53.690;19.948;2023-03-05T00:10:32;4.10;;;3.80;;
41466;SDS011;27205;53.690;19.948;2023-03-05T00:15:39;3.00;;;2.70;;
41466;SDS011;27205;53.690;19.948;2023-03-05T00:20:44;3.70;;;3.30;;
41466;SDS011;27205;53.690;19.948;2023-03-05T00:25:48;2.60;;;2.40;;
41466;SDS011;27205;53.690;19.948;2023-03-05T00:30:51;2.90;;;2.70;;
41466;SDS011;27205;53.690;19.948;2023-03-05T00:35:55;6.70;;;6.20;;
41466;SDS011;27205;53.690;19.948;2023-03-05T00:40:59;7.30;;;6.80;;
41466;SDS011;27205;53.690;19.948;2023-03-05T00:46:03;3.00;;;2.80;;
41466;SDS011;27205;53.690;19.948;2023-03-05T00:51:07;3.60;;;3.10;;
41466;SDS011;27205;53.690;19.948;2023-03-05T00:56:11;3.20;;;2.90;;
41466;SDS011;27205;53.690;19.948;2023-03-05T01:01:15;3.00;;;2.70;;
41466;SDS011;27205;53.690;19.948;2023-03-05T01:06:18;2.00;;;1.90;;
41466;SDS011;27205;53.690;19.948;2023-03-05T01:11:22;2.40;;;2.20;;
41466;SDS011;27205;53.690;19.948;2023-03-05T01:16:26;3.90;;;3.60;;
41466;SDS011;27205;53.690;19.948;2023-03-05T01:21:30;5.60;;;5.10;;
41466;SDS011;27205;53.690;19.948;2023-03-05T01:26:34;5.40;;;4.90;;
41466;SDS011;27205;53.690;19.948;2023-03-05T01:31:37;5.20;;;4.80;;
41466;SDS011;27205;53.690;19.948;2023-03-05T01:36:41;5.40;;;5.00;;
41466;SDS011;27205;53.690;19.948;2023-03-05T01:41:45;4.40;;;4.00;;
41466;SDS011;27205;53.690;19.948;2023-03-05T01:46:49;4.40;;;4.00;;
41466;SDS011;27205;53.690;19.948;2023-03-05T02:02:25;4.10;;;3.80;;
41466;SDS011;27205;53.690;19.948;2023-03-05T02:07:30;4.40;;;4.00;;
41466;SDS011;27205;53.690;19.948;2023-03-05T02:12:33;3.70;;;3.40;;
41466;SDS011;27205;53.690;19.948;2023-03-05T02:17:37;4.90;;;4.50;;
41466;SDS011;27205;53.690;19.948;2023-03-05T02:22:41;3.50;;;3.20;;
41466;SDS011;27205;53.690;19.948;2023-03-05T02:27:54;3.90;;;3.50;;
41466;SDS011;27205;53.690;19.948;2023-03-05T02:33:05;3.00;;;2.80;;
41466;SDS011;27205;53.690;19.948;2023-03-05T02:38:09;4.80;;;4.40;;
41466;SDS011;27205;53.690;19.948;2023-03-05T02:43:14;3.90;;;3.60;;
41466;SDS011;27205;53.690;19.948;2023-03-05T02:48:17;4.00;;;3.70;;
41466;SDS011;27205;53.690;19.948;2023-03-05T02:53:21;3.60;;;3.30;;
41466;SDS011;27205;53.690;19.948;2023-03-05T02:58:25;4.10;;;3.80;;
41466;SDS011;27205;53.690;19.948;2023-03-05T03:03:29;4.70;;;4.10;;
41466;SDS011;27205;53.690;19.948;2023-03-05T03:08:33;3.80;;;3.50;;
41466;SDS011;27205;53.690;19.948;2023-03-05T03:13:37;4.10;;;3.70;;
41466;SDS011;27205;53.690;19.948;2023-03-05T03:18:40;4.10;;;3.80;;
41466;SDS011;27205;53.690;19.948;2023-03-05T03:23:45;3.80;;;3.50;;
41466;SDS011;27205;53.690;19.948;2023-03-05T03:28:49;3.60;;;3.30;;
41466;SDS011;27205;53.690;19.948;2023-03-05T03:33:53;3.90;;;3.60;;
41466;SDS011;27205;53.690;19.948;2023-03-05T03:38:56;4.20;;;3.90;;
41466;SDS011;27205;53.690;19.948;2023-03-05T03:44:00;4.00;;;3.70;;
41466;SDS011;27205;53.690;19.948;2023-03-05T03:49:06;4.10;;;3.70;;
41466;SDS011;27205;53.690;19.948;2023-03-05T03:54:13;3.50;;;3.30;;
41466;SDS011;27205;53.690;19.948;2023-03-05T03:59:17;3.40;;;3.10;;
41466;SDS011;27205;53.690;19.948;2023-03-05T04:04:21;4.20;;;3.80;;
41466;SDS011;27205;53.690;19.948;2023-03-05T04:09:25;3.50;;;3.20;;
41466;SDS011;27205;53.690;19.948;2023-03-05T04:14:28;3.80;;;3.50;;
41466;SDS011;27205;53.690;19.948;2023-03-05T04:19:32;4.40;;;3.90;;
41466;SDS011;27205;53.690;19.948;2023-03-05T04:24:35;4.20;;;3.80;;
41466;SDS011;27205;53.690;19.948;2023-03-05T04:34:43;3.40;;;3.20;;
41466;SDS011;27205;53.690;19.948;2023-03-05T04:39:47;2.40;;;2.20;;
41466;SDS011;27205;53.690;19.948;2023-03-05T04:44:50;4.50;;;3.50;;
41466;SDS011;27205;53.690;19.948;2023-03-05T04:49:54;4.30;;;3.90;;
41466;SDS011;27205;53.690;19.948;2023-03-05T04:54:58;3.30;;;3.10;;
41466;SDS011;27205;53.690;19.948;2023-03-05T05:00:03;3.70;;;3.40;;
41466;SDS011;27205;53.690;19.948;2023-03-05T05:05:17;4.10;;;3.80;;
41466;SDS011;27205;53.690;19.948;2023-03-05T05:10:26;4.20;;;3.50;;
41466;SDS011;27205;53.690;19.948;2023-03-05T05:15:30;3.50;;;3.30;;
41466;SDS011;27205;53.690;19.948;2023-03-05T05:20:34;3.10;;;2.90;;
41466;SDS011;27205;53.690;19.948;2023-03-05T05:25:37;2.60;;;2.40;;
41466;SDS011;27205;53.690;19.948;2023-03-05T05:30:41;3.40;;;3.20;;
41466;SDS011;27205;53.690;19.948;2023-03-05T05:35:45;3.20;;;3.00;;
41466;SDS011;27205;53.690;19.948;2023-03-05T05:40:48;3.40;;;3.10;;
41466;SDS011;27205;53.690;19.948;2023-03-05T05:45:52;2.90;;;2.60;;
41466;SDS011;27205;53.690;19.948;2023-03-05T05:50:56;3.00;;;2.70;;
41466;SDS011;27205;53.690;19.948;2023-03-05T05:55:59;3.00;;;2.80;;
41466;SDS011;27205;53.690;19.948;2023-03-05T06:01:18;5.10;;;3.20;;
41466;SDS011;27205;53.690;19.948;2023-03-05T06:06:27;3.30;;;3.00;;
41466;SDS011;27205;53.690;19.948;2023-03-05T06:11:31;3.90;;;3.40;;
41466;SDS011;27205;53.690;19.948;2023-03-05T06:16:36;4.30;;;3.80;;
41466;SDS011;27205;53.690;19.948;2023-03-05T06:21:40;3.30;;;3.00;;
41466;SDS011;27205;53.690;19.948;2023-03-05T06:26:45;3.60;;;3.30;;
41466;SDS011;27205;53.690;19.948;2023-03-05T06:31:50;2.80;;;2.60;;
41466;SDS011;27205;53.690;19.948;2023-03-05T06:36:54;3.20;;;2.30;;
41466;SDS011;27205;53.690;19.948;2023-03-05T06:41:57;3.10;;;2.90;;
41466;SDS011;27205;53.690;19.948;2023-03-05T06:47:01;3.10;;;2.80;;
41466;SDS011;27205;53.690;19.948;2023-03-05T06:52:08;3.30;;;2.20;;
41466;SDS011;27205;53.690;19.948;2023-03-05T06:57:12;3.50;;;2.80;;
41466;SDS011;27205;53.690;19.948;2023-03-05T07:02:16;4.00;;;3.60;;
41466;SDS011;27205;53.690;19.948;2023-03-05T07:07:21;2.60;;;2.40;;
41466;SDS011;27205;53.690;19.948;2023-03-05T07:12:24;3.20;;;3.00;;
41466;SDS011;27205;53.690;19.948;2023-03-05T07:17:28;4.40;;;4.00;;
41466;SDS011;27205;53.690;19.948;2023-03-05T07:22:32;3.20;;;2.90;;
41466;SDS011;27205;53.690;19.948;2023-03-05T07:27:36;2.70;;;2.50;;
41466;SDS011;27205;53.690;19.948;2023-03-05T07:32:40;2.50;;;2.30;;
41466;SDS011;27205;53.690;19.948;2023-03-05T07:37:44;1.80;;;1.70;;
41466;SDS011;27205;53.690;19.948;2023-03-05T07:42:48;2.10;;;1.40;;
41466;SDS011;27205;53.690;19.948;2023-03-05T07:47:51;2.10;;;1.50;;
41466;SDS011;27205;53.690;19.948;2023-03-05T07:52:55;1.70;;;1.20;;
41466;SDS011;27205;53.690;19.948;2023-03-05T07:57:58;1.10;;;1.10;;
41466;SDS011;27205;53.690;19.948;2023-03-05T08:03:02;2.10;;;1.90;;
41466;SDS011;27205;53.690;19.948;2023-03-05T08:08:06;1.30;;;1.20;;
41466;SDS011;27205;53.690;19.948;2023-03-05T08:18:13;1.80;;;1.60;;
41466;SDS011;27205;53.690;19.948;2023-03-05T08:23:21;2.30;;;1.90;;
41466;SDS011;27205;53.690;19.948;2023-03-05T08:28:24;1.60;;;1.50;;
41466;SDS011;27205;53.690;19.948;2023-03-05T08:33:28;1.20;;;1.10;;
41466;SDS011;27205;53.690;19.948;2023-03-05T08:38:33;2.00;;;1.90;;
41466;SDS011;27205;53.690;19.948;2023-03-05T08:43:37;2.80;;;2.50;;
41466;SDS011;27205;53.690;19.948;2023-03-05T08:48:41;1.30;;;1.30;;
41466;SDS011;27205;53.690;19.948;2023-03-05T08:53:46;1.30;;;1.20;;
41466;SDS011;27205;53.690;19.948;2023-03-05T08:58:49;1.70;;;1.50;;
41466;SDS011;27205;53.690;19.948;2023-03-05T09:03:54;2.30;;;2.10;;
41466;SDS011;27205;53.690;19.948;2023-03-05T09:08:58;1.50;;;1.40;;
41466;SDS011;27205;53.690;19.948;2023-03-05T09:14:02;2.50;;;2.30;;
41466;SDS011;27205;53.690;19.948;2023-03-05T09:19:06;1.90;;;1.60;;
41466;SDS011;27205;53.690;19.948;2023-03-05T09:24:12;2.50;;;1.70;;
41466;SDS011;27205;53.690;19.948;2023-03-05T09:29:16;1.40;;;1.30;;
41466;SDS011;27205;53.690;19.948;2023-03-05T09:34:19;2.00;;;1.80;;
41466;SDS011;27205;53.690;19.948;2023-03-05T09:39:23;2.40;;;2.20;;
41466;SDS011;27205;53.690;19.948;2023-03-05T09:44:31;1.70;;;1.60;;
41466;SDS011;27205;53.690;19.948;2023-03-05T09:54:48;2.30;;;2.10;;
41466;SDS011;27205;53.690;19.948;2023-03-05T10:00:00;1.90;;;1.70;;
41466;SDS011;27205;53.690;19.948;2023-03-05T10:10:26;1.70;;;1.60;;
41466;SDS011;27205;53.690;19.948;2023-03-05T10:15:47;1.70;;;1.00;;
41466;SDS011;27205;53.690;19.948;2023-03-05T10:21:12;0.90;;;0.90;;
41466;SDS011;27205;53.690;19.948;2023-03-05T10:26:23;0.80;;;0.80;;
41466;SDS011;27205;53.690;19.948;2023-03-05T10:31:37;1.40;;;1.00;;
41466;SDS011;27205;53.690;19.948;2023-03-05T10:47:29;0.80;;;0.80;;
41466;SDS011;27205;53.690;19.948;2023-03-05T10:52:40;1.40;;;1.20;;
41466;SDS011;27205;53.690;19.948;2023-03-05T10:57:50;1.40;;;0.80;;
41466;SDS011;27205;53.690;19.948;2023-03-05T11:02:58;0.80;;;0.70;;
41466;SDS011;27205;53.690;19.948;2023-03-05T11:08:40;0.70;;;0.70;;
41466;SDS011;27205;53.690;19.948;2023-03-05T11:13:57;0.80;;;0.80;;
41466;SDS011;27205;53.690;19.948;2023-03-05T11:24:24;2.10;;;1.20;;
41466;SDS011;27205;53.690;19.948;2023-03-05T11:29:31;1.20;;;1.10;;
41466;SDS011;27205;53.690;19.948;2023-03-05T11:34:42;1.10;;;1.00;;
41466;SDS011;27205;53.690;19.948;2023-03-05T11:45:20;1.90;;;1.70;;
41466;SDS011;27205;53.690;19.948;2023-03-05T11:55:33;2.00;;;1.20;;
41466;SDS011;27205;53.690;19.948;2023-03-05T12:00:44;1.00;;;0.90;;
41466;SDS011;27205;53.690;19.948;2023-03-05T12:05:53;1.30;;;1.20;;
41466;SDS011;27205;53.690;19.948;2023-03-05T12:11:03;1.20;;;1.10;;
41466;SDS011;27205;53.690;19.948;2023-03-05T12:16:13;1.80;;;1.70;;
41466;SDS011;27205;53.690;19.948;2023-03-05T12:27:16;0.80;;;0.80;;
41466;SDS011;27205;53.690;19.948;2023-03-05T12:42:47;1.50;;;1.40;;
41466;SDS011;27205;53.690;19.948;2023-03-05T12:53:14;1.30;;;1.20;;
41466;SDS011;27205;53.690;19.948;2023-03-05T13:03:57;1.80;;;1.60;;
41466;SDS011;27205;53.690;19.948;2023-03-05T13:09:25;1.70;;;1.00;;
41466;SDS011;27205;53.690;19.948;2023-03-05T13:14:33;1.50;;;1.40;;
41466;SDS011;27205;53.690;19.948;2023-03-05T13:19:37;1.90;;;1.70;;
41466;SDS011;27205;53.690;19.948;2023-03-05T13:24:43;0.90;;;0.80;;
41466;SDS011;27205;53.690;19.948;2023-03-05T13:29:49;0.70;;;0.70;;
41466;SDS011;27205;53.690;19.948;2023-03-05T13:34:55;0.80;;;0.60;;
41466;SDS011;27205;53.690;19.948;2023-03-05T13:40:14;0.70;;;0.70;;
41466;SDS011;27205;53.690;19.948;2023-03-05T13:50:35;0.80;;;0.80;;
41466;SDS011;27205;53.690;19.948;2023-03-05T13:55:40;2.30;;;2.10;;
41466;SDS011;27205;53.690;19.948;2023-03-05T14:00:44;1.20;;;1.10;;
41466;SDS011;27205;53.690;19.948;2023-03-05T14:05:48;0.90;;;0.70;;
41466;SDS011;27205;53.690;19.948;2023-03-05T14:10:52;1.00;;;1.00;;
41466;SDS011;27205;53.690;19.948;2023-03-05T14:16:12;1.10;;;1.00;;
41466;SDS011;27205;53.690;19.948;2023-03-05T14:21:44;1.20;;;1.00;;
41466;SDS011;27205;53.690;19.948;2023-03-05T14:26:50;1.10;;;1.00;;
41466;SDS011;27205;53.690;19.948;2023-03-05T14:31:56;4.30;;;3.90;;
41466;SDS011;27205;53.690;19.948;2023-03-05T14:37:06;1.30;;;1.20;;
41466;SDS011;27205;53.690;19.948;2023-03-05T14:42:31;3.90;;;3.60;;
41466;SDS011;27205;53.690;19.948;2023-03-05T14:47:41;5.30;;;4.90;;
41466;SDS011;27205;53.690;19.948;2023-03-05T14:52:45;1.30;;;1.10;;
41466;SDS011;27205;53.690;19.948;2023-03-05T14:57:58;4.10;;;3.80;;
41466;SDS011;27205;53.690;19.948;2023-03-05T15:03:10;1.30;;;1.20;;
41466;SDS011;27205;53.690;19.948;2023-03-05T15:08:32;2.80;;;1.00;;
41466;SDS011;27205;53.690;19.948;2023-03-05T15:13:36;0.90;;;0.80;;
41466;SDS011;27205;53.690;19.948;2023-03-05T15:18:40;1.00;;;1.00;;
41466;SDS011;27205;53.690;19.948;2023-03-05T15:23:43;1.70;;;1.50;;
41466;SDS011;27205;53.690;19.948;2023-03-05T15:28:47;1.00;;;0.90;;
41466;SDS011;27205;53.690;19.948;2023-03-05T15:38:54;1.60;;;1.50;;
41466;SDS011;27205;53.690;19.948;2023-03-05T15:43:58;3.00;;;2.80;;
41466;SDS011;27205;53.690;19.948;2023-03-05T15:49:01;3.20;;;3.00;;
41466;SDS011;27205;53.690;19.948;2023-03-05T15:54:05;2.90;;;2.70;;
41466;SDS011;27205;53.690;19.948;2023-03-05T15:59:10;3.00;;;2.80;;
41466;SDS011;27205;53.690;19.948;2023-03-05T16:04:15;2.90;;;2.70;;
41466;SDS011;27205;53.690;19.948;2023-03-05T16:14:24;3.70;;;3.40;;
41466;SDS011;27205;53.690;19.948;2023-03-05T16:19:29;3.50;;;3.30;;
41466;SDS011;27205;53.690;19.948;2023-03-05T16:24:36;5.90;;;5.40;;
41466;SDS011;27205;53.690;19.948;2023-03-05T16:29:39;5.30;;;4.90;;
41466;SDS011;27205;53.690;19.948;2023-03-05T16:34:43;4.70;;;4.30;;
41466;SDS011;27205;53.690;19.948;2023-03-05T16:39:47;3.30;;;3.10;;
41466;SDS011;27205;53.690;19.948;2023-03-05T16:44:51;3.00;;;2.80;;
41466;SDS011;27205;53.690;19.948;2023-03-05T16:49:54;4.10;;;3.80;;
41466;SDS011;27205;53.690;19.948;2023-03-05T16:54:58;5.00;;;4.60;;
41466;SDS011;27205;53.690;19.948;2023-03-05T17:00:02;5.60;;;5.10;;
41466;SDS011;27205;53.690;19.948;2023-03-05T17:05:07;10.10;;;9.10;;
41466;SDS011;27205;53.690;19.948;2023-03-05T17:10:11;5.10;;;4.70;;
41466;SDS011;27205;53.690;19.948;2023-03-05T17:15:16;3.90;;;3.60;;
41466;SDS011;27205;53.690;19.948;2023-03-05T17:20:20;4.30;;;4.00;;
41466;SDS011;27205;53.690;19.948;2023-03-05T17:25:23;4.00;;;3.70;;
41466;SDS011;27205;53.690;19.948;2023-03-05T17:30:27;7.90;;;7.30;;
41466;SDS011;27205;53.690;19.948;2023-03-05T17:35:33;6.40;;;6.00;;
41466;SDS011;27205;53.690;19.948;2023-03-05T17:40:37;4.80;;;4.40;;
41466;SDS011;27205;53.690;19.948;2023-03-05T17:45:41;4.80;;;4.50;;
41466;SDS011;27205;53.690;19.948;2023-03-05T17:50:45;3.80;;;3.50;;
41466;SDS011;27205;53.690;19.948;2023-03-05T17:55:49;4.50;;;4.10;;
41466;SDS011;27205;53.690;19.948;2023-03-05T18:00:53;3.60;;;3.30;;
41466;SDS011;27205;53.690;19.948;2023-03-05T18:05:57;5.00;;;4.60;;
41466;SDS011;27205;53.690;19.948;2023-03-05T18:11:00;3.90;;;3.60;;
41466;SDS011;27205;53.690;19.948;2023-03-05T18:16:04;5.00;;;4.60;;
41466;SDS011;27205;53.690;19.948;2023-03-05T18:21:08;4.70;;;4.30;;
41466;SDS011;27205;53.690;19.948;2023-03-05T18:26:12;4.80;;;4.50;;
41466;SDS011;27205;53.690;19.948;2023-03-05T18:31:16;6.00;;;5.60;;
41466;SDS011;27205;53.690;19.948;2023-03-05T18:36:21;5.80;;;5.40;;
41466;SDS011;27205;53.690;19.948;2023-03-05T18:41:25;4.80;;;4.50;;
41466;SDS011;27205;53.690;19.948;2023-03-05T18:46:30;4.80;;;4.40;;
41466;SDS011;27205;53.690;19.948;2023-03-05T18:51:34;5.30;;;4.80;;
41466;SDS011;27205;53.690;19.948;2023-03-05T18:56:39;4.60;;;4.20;;
41466;SDS011;27205;53.690;19.948;2023-03-05T19:01:43;4.70;;;4.30;;
41466;SDS011;27205;53.690;19.948;2023-03-05T19:06:46;3.70;;;3.50;;
41466;SDS011;27205;53.690;19.948;2023-03-05T19:11:50;4.00;;;3.70;;
41466;SDS011;27205;53.690;19.948;2023-03-05T19:16:55;4.00;;;3.70;;
41466;SDS011;27205;53.690;19.948;2023-03-05T19:21:59;4.20;;;3.80;;
41466;SDS011;27205;53.690;19.948;2023-03-05T19:32:13;3.80;;;3.60;;
41466;SDS011;27205;53.690;19.948;2023-03-05T19:37:20;3.80;;;3.50;;
41466;SDS011;27205;53.690;19.948;2023-03-05T19:42:24;4.00;;;3.70;;
41466;SDS011;27205;53.690;19.948;2023-03-05T19:47:31;5.10;;;4.70;;
41466;SDS011;27205;53.690;19.948;2023-03-05T19:52:35;4.50;;;4.20;;
41466;SDS011;27205;53.690;19.948;2023-03-05T19:57:39;4.30;;;4.00;;
41466;SDS011;27205;53.690;19.948;2023-03-05T20:02:44;4.20;;;3.90;;
41466;SDS011;27205;53.690;19.948;2023-03-05T20:07:48;3.60;;;3.30;;
41466;SDS011;27205;53.690;19.948;2023-03-05T20:12:52;5.60;;;5.10;;
41466;SDS011;27205;53.690;19.948;2023-03-05T20:17:57;4.60;;;4.20;;
41466;SDS011;27205;53.690;19.948;2023-03-05T20:23:01;3.20;;;3.00;;
41466;SDS011;27205;53.690;19.948;2023-03-05T20:28:06;4.20;;;3.90;;
41466;SDS011;27205;53.690;19.948;2023-03-05T20:33:10;4.50;;;4.20;;
41466;SDS011;27205;53.690;19.948;2023-03-05T20:38:18;4.30;;;3.90;;
41466;SDS011;27205;53.690;19.948;2023-03-05T20:43:24;4.60;;;4.20;;
41466;SDS011;27205;53.690;19.948;2023-03-05T20:48:32;4.90;;;4.20;;
41466;SDS011;27205;53.690;19.948;2023-03-05T20:58:40;4.20;;;3.80;;
41466;SDS011;27205;53.690;19.948;2023-03-05T21:03:44;4.80;;;4.40;;
41466;SDS011;27205;53.690;19.948;2023-03-05T21:08:47;5.90;;;5.30;;
41466;SDS011;27205;53.690;19.948;2023-03-05T21:13:51;4.80;;;4.40;;
41466;SDS011;27205;53.690;19.948;2023-03-05T21:18:54;3.40;;;3.20;;
41466;SDS011;27205;53.690;19.948;2023-03-05T21:23:59;5.70;;;5.20;;
41466;SDS011;27205;53.690;19.948;2023-03-05T21:29:02;7.40;;;6.90;;
41466;SDS011;27205;53.690;19.948;2023-03-05T21:34:07;8.20;;;7.60;;
41466;SDS011;27205;53.690;19.948;2023-03-05T21:39:10;10.20;;;9.50;;
41466;SDS011;27205;53.690;19.948;2023-03-05T21:44:14;8.00;;;7.40;;
41466;SDS011;27205;53.690;19.948;2023-03-05T21:49:19;7.50;;;7.00;;
41466;SDS011;27205;53.690;19.948;2023-03-05T21:54:23;5.90;;;5.50;;
41466;SDS011;27205;53.690;19.948;2023-03-05T21:59:29;6.90;;;6.40;;
41466;SDS011;27205;53.690;19.948;2023-03-05T22:04:32;6.50;;;6.00;;
41466;SDS011;27205;53.690;19.948;2023-03-05T22:09:36;7.30;;;6.70;;
41466;SDS011;27205;53.690;19.948;2023-03-05T22:14:40;7.20;;;6.70;;
41466;SDS011;27205;53.690;19.948;2023-03-05T22:19:43;6.20;;;5.70;;
41466;SDS011;27205;53.690;19.948;2023-03-05T22:24:47;6.40;;;5.90;;
41466;SDS011;27205;53.690;19.948;2023-03-05T22:29:50;5.60;;;5.20;;
41466;SDS011;27205;53.690;19.948;2023-03-05T22:34:54;5.50;;;5.10;;
41466;SDS011;27205;53.690;19.948;2023-03-05T22:39:59;5.80;;;5.30;;
41466;SDS011;27205;53.690;19.948;2023-03-05T22:45:02;5.60;;;5.10;;
41466;SDS011;27205;53.690;19.948;2023-03-05T22:50:07;7.60;;;6.90;;
41466;SDS011;27205;53.690;19.948;2023-03-05T23:05:23;5.80;;;5.40;;
41466;SDS011;27205;53.690;19.948;2023-03-05T23:10:27;6.90;;;6.30;;
41466;SDS011;27205;53.690;19.948;2023-03-05T23:15:32;6.40;;;5.90;;
41466;SDS011;27205;53.690;19.948;2023-03-05T23:20:37;7.90;;;7.20;;
41466;SDS011;27205;53.690;19.948;2023-03-05T23:25:41;4.90;;;4.60;;
41466;SDS011;27205;53.690;19.948;2023-03-05T23:30:45;6.20;;;5.60;;
41466;SDS011;27205;53.690;19.948;2023-03-05T23:35:49;5.40;;;5.00;;
41466;SDS011;27205;53.690;19.948;2023-03-05T23:41:01;5.60;;;5.20;;
41466;SDS011;27205;53.690;19.948;2023-03-05T23:46:09;6.80;;;5.50;;
41466;SDS011;27205;53.690;19.948;2023-03-05T23:51:14;5.80;;;5.40;;
41466;SDS011;27205;53.690;19.948;2023-03-05T23:56:17;11.40;;;10.50;;
